Time;durP1;ratioP1;P1;durP2;ratioP2;P2;SDS_P1;SDS_P2;PMS_P1;PMS_P2;Temp;Humidity;BMP_temperature;BMP_pressure;BME280_temperature;BME280_humidity;BME280_pressure;Samples;Min_cycle;Max_cycle;Signal;HPM_P1;HPM_P2
2022/04/04 00:01:30;;;;;;;20.92;11.00;;;-1.00;21.70;;;;;;7357346;19;20482;-61
2022/04/04 00:04:04;;;;;;;20.45;10.23;;;-1.00;21.70;;;;;;7362519;19;20011;-60
2022/04/04 00:06:37;;;;;;;16.08;10.38;;;-1.00;22.60;;;;;;7363608;19;20478;-61
2022/04/04 00:09:07;;;;;;;18.52;10.40;;;-1.00;22.40;;;;;;7366482;19;20052;-61
2022/04/04 00:11:37;;;;;;;15.90;10.52;;;-1.00;22.70;;;;;;7387134;19;20017;-61
2022/04/04 00:14:07;;;;;;;17.83;10.98;;;-1.00;22.60;;;;;;7365220;19;20062;-60
2022/04/04 00:16:40;;;;;;;14.02;9.48;;;-1.00;22.60;;;;;;7362968;19;20013;-61
2022/04/04 00:19:14;;;;;;;15.93;10.32;;;-1.10;22.50;;;;;;7368721;19;20014;-61
2022/04/04 00:21:45;;;;;;;15.90;10.30;;;-1.10;23.30;;;;;;7363654;19;20007;-60
2022/04/04 00:24:15;;;;;;;17.45;10.38;;;-1.00;23.30;;;;;;7368952;19;20362;-62
2022/04/04 00:26:46;;;;;;;14.10;9.73;;;-1.10;23.20;;;;;;7386908;19;20018;-59
2022/04/04 00:29:16;;;;;;;16.60;10.38;;;-1.10;23.80;;;;;;7367001;19;20097;-60
2022/04/04 00:31:46;;;;;;;18.58;11.32;;;-1.10;24.40;;;;;;7363484;19;20017;-60
2022/04/04 00:34:19;;;;;;;18.15;11.02;;;-1.10;24.50;;;;;;7367392;19;20018;-60
2022/04/04 00:36:49;;;;;;;17.65;10.55;;;-1.10;23.80;;;;;;7365221;19;20032;-61
2022/04/04 00:39:19;;;;;;;19.63;10.90;;;-1.10;23.30;;;;;;7368250;19;20041;-61
2022/04/04 00:41:49;;;;;;;16.00;10.25;;;-1.20;23.70;;;;;;7385337;19;20015;-61
2022/04/04 00:44:19;;;;;;;16.75;10.68;;;-1.10;24.30;;;;;;7368002;19;20066;-61
2022/04/04 00:46:51;;;;;;;17.20;10.23;;;-1.10;24.70;;;;;;7364948;19;20010;-62
2022/04/04 00:49:24;;;;;;;15.57;10.23;;;-1.20;24.10;;;;;;7368297;19;20023;-61
2022/04/04 00:51:55;;;;;;;14.45;9.98;;;-1.30;23.70;;;;;;7363900;19;20010;-61
2022/04/04 00:54:25;;;;;;;20.80;10.00;;;-1.20;23.60;;;;;;7367403;19;20562;-62
2022/04/04 00:56:56;;;;;;;16.17;10.23;;;-1.20;23.60;;;;;;7388710;19;20018;-61
2022/04/04 00:59:26;;;;;;;17.70;10.73;;;-1.20;24.20;;;;;;7368002;19;20098;-60
2022/04/04 01:01:56;;;;;;;16.65;10.20;;;-1.20;23.80;;;;;;7361749;19;20015;-60
2022/04/04 01:04:29;;;;;;;18.83;10.25;;;-1.20;23.80;;;;;;7367538;19;20019;-60
2022/04/04 01:07:01;;;;;;;19.90;10.95;;;-1.20;23.80;;;;;;7366402;19;21605;-61
2022/04/04 01:09:32;;;;;;;18.23;10.88;;;-1.20;23.40;;;;;;7366924;19;20010;-61
2022/04/04 01:12:07;;;;;;;16.75;10.95;;;-1.20;23.40;;;;;;7362406;19;20015;-61
2022/04/04 01:14:37;;;;;;;;;;;-1.20;23.00;;;;;;7389144;19;20120;-61
2022/04/04 01:17:07;;;;;;;15.50;10.40;;;-1.30;22.60;;;;;;7367426;19;20401;-61
2022/04/04 01:19:40;;;;;;;18.20;12.07;;;-1.30;23.40;;;;;;7367638;19;20082;-61
2022/04/04 01:22:11;;;;;;;17.13;11.27;;;-1.30;23.80;;;;;;7364873;19;20648;-61
2022/04/04 01:24:45;;;;;;;15.90;10.75;;;-1.30;23.90;;;;;;7367200;19;20116;-60
2022/04/04 01:27:15;;;;;;;19.48;10.95;;;-1.30;23.90;;;;;;7366131;19;20007;-61
2022/04/04 01:29:45;;;;;;;18.30;10.90;;;-1.20;23.80;;;;;;7389158;19;20022;-61
2022/04/04 01:32:15;;;;;;;17.08;11.20;;;-1.20;22.50;;;;;;7364656;19;20014;-61
2022/04/04 01:34:45;;;;;;;18.52;11.50;;;-1.20;22.50;;;;;;7366469;19;20090;-60
2022/04/04 01:37:15;;;;;;;16.75;10.85;;;-1.20;22.20;;;;;;7365342;19;20518;-62
2022/04/04 01:39:48;;;;;;;16.40;10.85;;;-1.30;22.00;;;;;;7366812;19;20013;-60
2022/04/04 01:42:18;;;;;;;17.40;11.05;;;-1.30;21.20;;;;;;7361844;19;21248;-61
2022/04/04 01:44:48;;;;;;;16.88;10.18;;;-1.30;21.20;;;;;;7388288;19;20082;-61
2022/04/04 01:47:18;;;;;;;17.77;11.40;;;-1.30;21.40;;;;;;7364772;19;20053;-61
2022/04/04 01:49:47;;;;;;;15.57;10.23;;;-1.30;21.20;;;;;;7367092;19;20963;-61
2022/04/04 01:52:17;;;;;;;17.38;10.73;;;-1.40;20.80;;;;;;7362096;19;20018;-61
2022/04/04 01:54:50;;;;;;;17.73;9.23;;;-1.30;21.40;;;;;;7366178;19;20366;-60
2022/04/04 01:57:20;;;;;;;17.35;10.35;;;-1.30;20.20;;;;;;7365741;19;20010;-60
2022/04/04 01:59:50;;;;;;;15.35;9.70;;;-1.30;20.00;;;;;;7388951;19;20592;-61
2022/04/04 02:02:19;;;;;;;16.33;10.38;;;-1.30;19.70;;;;;;7361630;19;20046;-61
2022/04/04 02:04:50;;;;;;;15.18;9.95;;;-1.40;19.70;;;;;;7364788;19;20039;-62
2022/04/04 02:07:19;;;;;;;15.52;10.27;;;-1.40;19.80;;;;;;7363732;19;20478;-62
2022/04/04 02:09:53;;;;;;;17.27;10.10;;;-1.40;19.50;;;;;;7364061;19;20015;-61
2022/04/04 02:12:25;;;;;;;17.53;9.73;;;-1.40;19.50;;;;;;7362527;19;20025;-61
2022/04/04 02:14:55;;;;;;;16.92;9.95;;;-1.50;18.90;;;;;;7386670;19;20019;-62
2022/04/04 02:17:25;;;;;;;14.23;9.70;;;-1.50;19.50;;;;;;7364607;19;20010;-60
2022/04/04 02:19:55;;;;;;;13.02;9.23;;;-1.50;18.90;;;;;;7365768;19;20089;-61
2022/04/04 02:22:25;;;;;;;15.45;9.60;;;-1.50;18.30;;;;;;7361253;19;20813;-60
2022/04/04 02:24:58;;;;;;;13.80;8.98;;;-1.50;18.10;;;;;;7365102;19;20021;-63
2022/04/04 02:27:28;;;;;;;13.65;9.10;;;-1.40;17.00;;;;;;7363001;19;20024;-60
2022/04/04 02:29:58;;;;;;;13.07;8.88;;;-1.40;15.50;;;;;;7365370;19;20011;-62
2022/04/04 02:32:33;;;;;;;13.07;8.27;;;-1.40;14.10;;;;;;7379503;19;20022;-61
2022/04/04 02:35:03;;;;;;;15.65;8.85;;;-1.30;13.00;;;;;;7362868;19;20020;-60
2022/04/04 02:37:33;;;;;;;12.82;8.90;;;-1.30;12.90;;;;;;7362923;19;20007;-61
2022/04/04 02:40:08;;;;;;;13.88;8.45;;;-1.30;12.20;;;;;;7365448;19;20017;-61
2022/04/04 02:42:38;;;;;;;13.15;7.82;;;-1.30;12.50;;;;;;7360775;19;20283;-61
2022/04/04 02:45:09;;;;;;;14.18;9.55;;;-1.30;12.70;;;;;;7364154;19;20010;-61
2022/04/04 02:47:39;;;;;;;15.30;9.30;;;-1.30;14.00;;;;;;7384082;19;20010;-61
2022/04/04 02:50:11;;;;;;;16.35;9.77;;;-1.30;15.50;;;;;;7364428;19;20069;-60
2022/04/04 02:52:41;;;;;;;15.48;10.70;;;-1.30;16.50;;;;;;7359358;19;20015;-61
2022/04/04 02:57:57;;;;;;;20.17;12.13;;;-1.30;18.10;;;;;;7362397;19;20014;-61
2022/04/04 03:00:27;;;;;;;24.85;13.95;;;-1.40;19.00;;;;;;7364532;19;20014;-61
2022/04/04 03:02:58;;;;;;;22.40;12.73;;;-1.30;20.70;;;;;;7366421;19;20021;-60
2022/04/04 03:05:28;;;;;;;22.48;13.70;;;-1.40;21.70;;;;;;7383985;19;20070;-61
2022/04/04 03:07:58;;;;;;;20.92;13.10;;;-1.30;22.40;;;;;;7360678;19;20470;-60
2022/04/04 03:10:31;;;;;;;22.50;14.75;;;-1.30;22.40;;;;;;7364681;19;20013;-60
2022/04/04 03:13:05;;;;;;;22.48;14.82;;;-1.30;23.00;;;;;;7359438;19;20032;-61
2022/04/04 03:15:37;;;;;;;25.55;15.40;;;-1.30;24.00;;;;;;7364107;19;20096;-61
2022/04/04 03:18:07;;;;;;;22.42;14.43;;;-1.40;24.60;;;;;;7361416;19;20017;-60
2022/04/04 03:20:38;;;;;;;24.85;16.35;;;-1.40;25.70;;;;;;7385346;19;20073;-61
2022/04/04 03:23:08;;;;;;;25.67;15.80;;;-1.40;26.40;;;;;;7359549;19;20017;-60
2022/04/04 03:25:42;;;;;;;25.35;15.45;;;-1.30;26.90;;;;;;7363381;19;20013;-60
2022/04/04 03:28:12;;;;;;;26.83;16.15;;;-1.40;26.90;;;;;;7360931;19;20006;-60
2022/04/04 03:30:42;;;;;;;26.73;16.52;;;-1.40;27.20;;;;;;7363942;19;20015;-61
2022/04/04 03:33:12;;;;;;;31.73;17.63;;;-1.40;27.70;;;;;;7359517;19;20014;-61
2022/04/04 03:35:42;;;;;;;31.27;16.25;;;-1.30;28.10;;;;;;7383252;19;20013;-60
2022/04/04 03:38:14;;;;;;;25.65;15.35;;;-1.40;28.10;;;;;;7359764;19;20011;-60
2022/04/04 03:40:47;;;;;;;28.70;16.30;;;-1.50;28.50;;;;;;7363396;19;20049;-60
2022/04/04 03:43:17;;;;;;;25.77;15.75;;;-1.40;28.50;;;;;;7356429;19;20006;-60
2022/04/04 03:45:47;;;;;;;30.15;15.98;;;-1.40;28.50;;;;;;7362800;19;20006;-60
2022/04/04 03:48:18;;;;;;;26.60;15.85;;;-1.50;28.20;;;;;;7360172;19;20007;-60
2022/04/04 03:50:51;;;;;;;24.98;15.23;;;-1.50;28.30;;;;;;7385426;19;20078;-60
2022/04/04 03:53:21;;;;;;;27.05;16.60;;;-1.50;28.10;;;;;;7357498;19;20014;-61
2022/04/04 03:55:54;;;;;;;25.80;16.42;;;-1.50;27.70;;;;;;7360750;19;20014;-60
2022/04/04 03:58:24;;;;;;;27.27;16.70;;;-1.40;27.90;;;;;;7358711;19;20040;-60
2022/04/04 04:00:54;;;;;;;27.38;17.27;;;-1.40;27.70;;;;;;7361500;19;20010;-60
2022/04/04 04:03:24;;;;;;;27.55;16.33;;;-1.50;27.60;;;;;;7356737;19;20015;-60
2022/04/04 04:06:11;;;;;;;28.20;16.63;;;-1.50;27.70;;;;;;7383403;19;20450;-60
2022/04/04 04:08:43;;;;;;;26.38;15.07;;;-1.60;28.10;;;;;;7358478;19;20022;-61
2022/04/04 04:11:19;;;;;;;27.10;16.00;;;-1.60;28.40;;;;;;7362639;19;20500;-60
2022/04/04 04:13:49;;;;;;;26.50;16.02;;;-1.70;28.40;;;;;;7356080;19;20732;-61
2022/04/04 04:16:21;;;;;;;26.05;16.30;;;-1.60;28.30;;;;;;7362746;19;20018;-61
2022/04/04 04:18:51;;;;;;;29.80;16.58;;;-1.70;28.80;;;;;;7359061;19;20015;-61
2022/04/04 04:21:21;;;;;;;23.20;15.13;;;-1.60;28.80;;;;;;7361577;19;20042;-60
2022/04/04 04:23:51;;;;;;;27.38;16.23;;;-1.60;28.40;;;;;;7378426;19;20019;-61
2022/04/04 04:26:25;;;;;;;27.05;16.00;;;-1.70;28.10;;;;;;7361599;19;20011;-60
2022/04/04 04:28:55;;;;;;;27.30;16.98;;;-1.70;27.90;;;;;;7358373;19;20010;-62
2022/04/04 04:31:25;;;;;;;26.92;15.70;;;-1.80;27.70;;;;;;7362621;19;20017;-60
2022/04/04 04:33:55;;;;;;;23.23;15.05;;;-1.80;28.40;;;;;;7356157;19;20087;-61
2022/04/04 04:36:25;;;;;;;27.27;16.48;;;-1.80;28.70;;;;;;7360184;19;20506;-60
2022/04/04 04:38:55;;;;;;;29.38;16.85;;;-1.80;28.70;;;;;;7380417;19;20362;-61
2022/04/04 04:41:28;;;;;;;26.42;16.50;;;-1.70;28.70;;;;;;7361760;19;20011;-60
2022/04/04 04:43:58;;;;;;;25.27;15.90;;;-1.80;27.80;;;;;;7357285;19;20015;-61
2022/04/04 04:46:28;;;;;;;27.42;16.45;;;-1.80;27.40;;;;;;7361705;19;20810;-60
2022/04/04 04:48:58;;;;;;;28.25;17.05;;;-1.70;27.20;;;;;;7358571;19;20371;-61
2022/04/04 04:51:29;;;;;;;27.05;17.35;;;-1.70;27.00;;;;;;7360517;19;20110;-62
2022/04/04 04:53:59;;;;;;;25.35;16.75;;;-1.80;26.90;;;;;;7357632;19;20014;-61
2022/04/04 04:56:31;;;;;;;29.98;17.92;;;-1.80;26.90;;;;;;7387005;19;20020;-61
2022/04/04 04:59:01;;;;;;;27.50;16.83;;;-1.80;27.50;;;;;;7365405;19;20017;-62
2022/04/04 05:01:31;;;;;;;28.27;17.30;;;-1.80;27.90;;;;;;7367056;19;20074;-62
2022/04/04 05:04:01;;;;;;;27.85;17.52;;;-1.80;27.60;;;;;;7363808;19;20024;-59
2022/04/04 05:06:31;;;;;;;25.63;17.00;;;-1.80;27.40;;;;;;7367395;19;20082;-62
2022/04/04 05:09:02;;;;;;;28.73;15.98;;;-1.80;27.40;;;;;;7366218;19;20010;-62
2022/04/04 05:11:35;;;;;;;26.13;16.55;;;-1.80;27.20;;;;;;7388243;19;20086;-61
2022/04/04 05:14:05;;;;;;;28.40;16.58;;;-1.80;27.00;;;;;;7363717;19;20099;-61
2022/04/04 05:16:35;;;;;;;29.27;16.40;;;-1.70;26.70;;;;;;7364903;19;20017;-62
2022/04/04 05:19:05;;;;;;;24.30;15.45;;;-1.70;25.50;;;;;;7365826;19;20011;-61
2022/04/04 05:21:35;;;;;;;26.63;16.25;;;-1.60;25.30;;;;;;7366226;19;20014;-60
2022/04/04 05:24:06;;;;;;;27.50;16.13;;;-1.60;24.20;;;;;;7365317;19;20078;-61
2022/04/04 05:26:39;;;;;;;24.38;15.75;;;-1.50;22.30;;;;;;7386621;19;20024;-61
2022/04/04 05:29:09;;;;;;;29.70;14.93;;;-1.40;22.40;;;;;;7366633;19;20089;-61
2022/04/04 05:31:39;;;;;;;28.10;16.88;;;-1.30;20.70;;;;;;7363348;19;20014;-60
2022/04/04 05:34:09;;;;;;;26.15;14.65;;;-1.00;19.70;;;;;;7364251;19;20371;-61
2022/04/04 05:36:40;;;;;;;24.20;13.88;;;-0.80;17.40;;;;;;7362713;19;20025;-61
2022/04/04 05:39:10;;;;;;;21.75;14.00;;;-1.10;17.20;;;;;;7365226;19;20009;-61
2022/04/04 05:41:42;;;;;;;24.25;13.85;;;-1.00;16.90;;;;;;7386123;19;20615;-60
2022/04/04 05:44:12;;;;;;;22.52;13.65;;;-1.00;16.10;;;;;;7364645;19;20350;-61
2022/04/04 05:46:43;;;;;;;23.42;13.10;;;-0.90;15.70;;;;;;7364099;19;20011;-61
2022/04/04 05:49:13;;;;;;;18.48;12.63;;;-0.90;13.60;;;;;;7365716;19;20500;-61
2022/04/04 05:51:43;;;;;;;20.98;12.63;;;-0.70;12.50;;;;;;7362562;19;20021;-61
2022/04/04 05:54:30;;;;;;;20.05;13.15;;;-0.60;12.10;;;;;;7365210;19;20066;-60
2022/04/04 05:57:03;;;;;;;22.73;12.23;;;-0.50;10.50;;;;;;7361668;19;20018;-60
2022/04/04 05:59:33;;;;;;;18.20;11.23;;;-0.50;8.40;;;;;;7387426;19;20021;-60
2022/04/04 06:02:03;;;;;;;20.05;11.40;;;-0.40;7.80;;;;;;7360422;19;20007;-61
2022/04/04 06:04:33;;;;;;;20.35;11.73;;;-0.40;7.70;;;;;;7363934;19;20360;-61
2022/04/04 06:07:03;;;;;;;17.15;11.20;;;-0.30;7.00;;;;;;7360841;19;20493;-60
2022/04/04 06:09:33;;;;;;;19.23;10.95;;;-0.10;5.80;;;;;;7365368;19;20021;-61
2022/04/04 06:12:06;;;;;;;25.90;11.23;;;0.00;5.20;;;;;;7360263;19;20073;-60
2022/04/04 06:14:36;;;;;;;18.38;10.82;;;-0.10;4.40;;;;;;7386955;19;20025;-60
2022/04/04 06:17:07;;;;;;;14.00;9.77;;;-0.10;3.50;;;;;;7360331;19;20014;-61
2022/04/04 06:19:37;;;;;;;18.23;10.90;;;0.10;2.30;;;;;;7364021;19;20397;-61
2022/04/04 06:22:08;;;;;;;17.98;10.43;;;0.10;2.50;;;;;;7361050;19;20003;-61
2022/04/04 06:24:38;;;;;;;19.63;10.75;;;0.20;3.00;;;;;;7366354;19;20560;-60
2022/04/04 06:27:10;;;;;;;18.08;10.45;;;0.20;2.20;;;;;;7362516;19;20035;-60
2022/04/04 06:29:40;;;;;;;16.95;10.40;;;0.40;1.70;;;;;;7386413;19;20015;-60
2022/04/04 06:32:11;;;;;;;15.02;9.60;;;0.40;1.50;;;;;;7359095;19;20434;-60
2022/04/04 06:34:41;;;;;;;19.70;10.27;;;0.60;1.00;;;;;;7363121;19;20006;-60
2022/04/04 06:37:11;;;;;;;16.25;9.95;;;0.80;1.00;;;;;;7362380;19;20025;-60
2022/04/04 06:39:41;;;;;;;15.63;9.50;;;0.90;1.00;;;;;;7363858;19;20411;-60
2022/04/04 06:42:14;;;;;;;15.52;9.75;;;0.90;1.00;;;;;;7359666;19;20486;-60
2022/04/04 06:44:44;;;;;;;35.70;10.98;;;0.90;1.00;;;;;;7386055;19;20078;-60
2022/04/04 06:47:14;;;;;;;16.30;9.35;;;0.90;1.00;;;;;;7359998;19;20025;-61
2022/04/04 06:49:44;;;;;;;14.35;9.35;;;1.10;1.00;;;;;;7360290;19;20670;-59
2022/04/04 06:52:14;;;;;;;19.85;10.40;;;1.20;1.00;;;;;;7357584;19;20015;-60
2022/04/04 06:54:48;;;;;;;15.20;9.93;;;1.20;1.00;;;;;;7363198;19;20017;-60
2022/04/04 06:57:21;;;;;;;15.90;9.40;;;1.20;1.00;;;;;;7360754;19;20023;-60
2022/04/04 06:59:51;;;;;;;16.33;10.15;;;1.40;1.00;;;;;;7384407;19;20022;-60
2022/04/04 07:02:21;;;;;;;15.05;9.57;;;1.30;1.00;;;;;;7357577;19;20649;-62
2022/04/04 07:04:52;;;;;;;16.27;9.95;;;1.70;1.00;;;;;;7361566;19;20011;-60
2022/04/04 07:07:22;;;;;;;15.55;9.82;;;1.90;1.00;;;;;;7359940;19;20082;-61
2022/04/04 07:09:52;;;;;;;19.95;9.90;;;2.10;1.00;;;;;;7362657;19;20055;-61
2022/04/04 07:12:25;;;;;;;14.15;9.25;;;2.20;1.00;;;;;;7359123;19;20021;-60
2022/04/04 07:14:55;;;;;;;13.93;8.55;;;2.20;1.00;;;;;;7384729;19;20019;-60
2022/04/04 07:17:25;;;;;;;14.02;8.98;;;2.30;1.00;;;;;;7358792;19;20062;-60
2022/04/04 07:19:55;;;;;;;15.73;8.13;;;2.30;1.00;;;;;;7361560;19;20014;-60
2022/04/04 07:22:25;;;;;;;13.80;8.50;;;2.50;1.00;;;;;;7357356;19;20017;-60
2022/04/04 07:24:55;;;;;;;11.80;7.85;;;2.60;1.00;;;;;;7363121;19;20563;-61
2022/04/04 07:27:27;;;;;;;12.75;8.65;;;2.60;1.00;;;;;;7361208;19;20039;-61
2022/04/04 07:29:57;;;;;;;19.27;8.90;;;2.80;1.00;;;;;;7369240;19;20018;-60
2022/04/04 07:32:28;;;;;;;17.27;7.53;;;2.80;1.00;;;;;;7379097;19;20055;-60
2022/04/04 07:34:58;;;;;;;9.75;6.80;;;3.00;1.00;;;;;;7361105;19;20017;-62
2022/04/04 07:37:28;;;;;;;11.25;6.90;;;3.00;1.00;;;;;;7359441;19;20081;-62
2022/04/04 07:39:58;;;;;;;13.50;6.55;;;3.00;1.00;;;;;;7361941;19;20002;-61
2022/04/04 07:42:30;;;;;;;11.23;6.20;;;3.20;1.00;;;;;;7357137;19;20093;-61
2022/04/04 07:45:00;;;;;;;11.43;6.65;;;3.40;1.00;;;;;;7361453;19;20617;-62
2022/04/04 07:47:30;;;;;;;13.75;6.70;;;3.40;1.00;;;;;;7378409;19;20070;-61
2022/04/04 07:50:00;;;;;;;9.13;6.32;;;3.50;1.00;;;;;;7361525;19;20013;-61
2022/04/04 07:52:30;;;;;;;12.25;5.85;;;3.50;1.00;;;;;;7357054;19;20085;-61
2022/04/04 07:55:00;;;;;;;9.90;6.22;;;3.50;1.00;;;;;;7362180;19;20003;-61
2022/04/04 07:57:33;;;;;;;11.23;6.20;;;3.60;1.00;;;;;;7358620;19;20014;-61
2022/04/04 08:00:04;;;;;;;8.95;5.93;;;3.50;1.00;;;;;;7362230;19;20014;-60
2022/04/04 08:02:33;;;;;;;9.52;5.93;;;3.70;1.00;;;;;;7378772;19;20074;-61
2022/04/04 08:05:04;;;;;;;9.70;5.80;;;3.90;1.00;;;;;;7360133;19;20027;-60
2022/04/04 08:07:34;;;;;;;9.55;5.75;;;3.90;1.00;;;;;;7359945;19;20106;-61
2022/04/04 08:10:04;;;;;;;12.45;6.97;;;4.10;1.00;;;;;;7361893;19;20038;-61
2022/04/04 08:12:37;;;;;;;9.68;5.65;;;4.00;1.00;;;;;;7357037;19;20010;-60
2022/04/04 08:15:08;;;;;;;11.57;6.03;;;4.30;1.00;;;;;;7360131;19;20078;-61
2022/04/04 08:17:38;;;;;;;9.68;6.22;;;4.40;1.00;;;;;;7379308;19;20014;-60
2022/04/04 08:20:11;;;;;;;8.95;5.60;;;4.70;1.00;;;;;;7360592;19;20007;-61
2022/04/04 08:22:42;;;;;;;9.10;6.13;;;4.60;1.00;;;;;;7356087;19;20039;-60
2022/04/04 08:25:12;;;;;;;9.70;6.15;;;4.60;1.00;;;;;;7360320;19;20003;-60
2022/04/04 08:27:46;;;;;;;8.15;6.07;;;4.30;1.00;;;;;;7358880;19;20710;-60
2022/04/04 08:30:18;;;;;;;8.65;6.00;;;4.40;1.00;;;;;;7365891;19;20022;-60
2022/04/04 08:32:48;;;;;;;8.02;6.20;;;4.90;1.00;;;;;;7384784;19;20047;-60
2022/04/04 08:35:18;;;;;;;10.13;6.20;;;5.00;1.00;;;;;;7366691;19;20086;-60
2022/04/04 08:37:49;;;;;;;9.65;6.43;;;5.10;1.00;;;;;;7364772;19;20876;-61
2022/04/04 08:40:19;;;;;;;8.60;5.93;;;5.00;1.00;;;;;;7367829;19;20097;-61
2022/04/04 08:42:52;;;;;;;14.93;6.95;;;5.00;1.00;;;;;;7361663;19;20007;-60
2022/04/04 08:45:22;;;;;;;13.10;7.28;;;4.60;1.00;;;;;;7366134;19;20024;-61
2022/04/04 08:47:52;;;;;;;8.25;5.63;;;5.00;1.00;;;;;;7387192;19;20191;-60
2022/04/04 08:50:22;;;;;;;10.10;6.82;;;5.40;1.00;;;;;;7367668;19;20006;-60
2022/04/04 08:52:52;;;;;;;8.38;6.05;;;5.30;1.00;;;;;;7362682;19;20090;-60
2022/04/04 08:55:28;;;;;;;8.75;6.80;;;5.00;1.00;;;;;;7367083;19;20010;-61
2022/04/04 08:58:01;;;;;;;8.95;6.20;;;5.30;1.00;;;;;;7363809;19;20030;-60
2022/04/04 09:00:31;;;;;;;12.73;6.07;;;5.30;1.00;;;;;;7367710;19;20021;-60
2022/04/04 09:03:04;;;;;;;8.52;6.18;;;5.10;1.00;;;;;;7362639;19;20017;-60
2022/04/04 09:05:35;;;;;;;7.63;5.95;;;5.50;1.00;;;;;;7387590;19;20243;-59
2022/04/04 09:08:07;;;;;;;9.90;6.40;;;5.70;1.00;;;;;;7365133;19;20018;-60
2022/04/04 09:10:40;;;;;;;13.13;6.18;;;5.70;1.00;;;;;;7367674;19;20015;-60
2022/04/04 09:13:17;;;;;;;7.00;5.53;;;5.70;1.00;;;;;;7361839;19;20662;-60
2022/04/04 09:15:58;;;;;;;7.65;5.88;;;5.60;1.00;;;;;;7365422;19;20018;-61
2022/04/04 09:18:58;;;;;;;13.40;6.35;;;5.90;1.00;;;;;;7363351;19;20010;-60
2022/04/04 09:21:38;;;;;;;11.77;5.90;;;5.60;1.00;;;;;;7364993;19;20015;-61
2022/04/04 09:24:11;;;;;;;8.60;5.82;;;5.50;1.00;;;;;;7363816;19;20014;-61
2022/04/04 09:26:44;;;;;;;8.52;6.13;;;6.00;1.00;;;;;;7387684;19;20044;-61
2022/04/04 09:29:21;;;;;;;6.88;5.03;;;5.70;1.00;;;;;;7366702;19;20490;-60
2022/04/04 09:31:57;;;;;;;7.13;5.32;;;5.60;1.00;;;;;;7360275;19;20003;-62
2022/04/04 09:34:28;;;;;;;6.82;4.95;;;6.00;1.00;;;;;;7365385;19;20007;-61
2022/04/04 09:36:58;;;;;;;6.72;5.30;;;6.10;1.00;;;;;;7365861;19;20479;-60
2022/04/04 09:39:28;;;;;;;7.70;5.35;;;6.00;1.00;;;;;;7363334;19;20500;-61
2022/04/04 09:42:01;;;;;;;11.57;6.90;;;6.10;1.00;;;;;;7359208;19;20017;-61
2022/04/04 09:44:34;;;;;;;13.32;5.53;;;6.20;1.00;;;;;;7385743;19;20011;-61
2022/04/04 09:47:04;;;;;;;8.05;6.05;;;6.20;1.00;;;;;;7364048;19;20017;-60
2022/04/04 09:49:41;;;;;;;8.50;6.00;;;6.20;1.00;;;;;;7367004;19;20113;-60
2022/04/04 09:52:11;;;;;;;8.63;6.18;;;6.10;1.00;;;;;;7361292;19;20449;-62
2022/04/04 09:54:44;;;;;;;6.47;5.55;;;6.40;1.00;;;;;;7363899;19;20017;-61
2022/04/04 09:57:16;;;;;;;8.05;6.13;;;6.50;1.00;;;;;;7363931;19;20003;-61
2022/04/04 09:59:53;;;;;;;8.38;5.93;;;6.20;1.00;;;;;;7386473;19;20015;-60
2022/04/04 10:02:23;;;;;;;7.05;5.03;;;6.30;1.00;;;;;;7360520;19;20021;-61
2022/04/04 10:04:55;;;;;;;12.45;4.90;;;6.10;1.00;;;;;;7363956;19;20052;-61
2022/04/04 10:07:25;;;;;;;5.43;4.80;;;6.10;1.00;;;;;;7362416;19;20502;-61
2022/04/04 10:09:55;;;;;;;6.50;5.13;;;6.40;1.00;;;;;;7365421;19;20434;-61
2022/04/04 10:12:25;;;;;;;7.40;4.78;;;6.70;1.00;;;;;;7361864;19;20086;-61
2022/04/04 10:15:00;;;;;;;6.03;4.90;;;6.90;1.00;;;;;;7385492;19;20098;-61
2022/04/04 10:17:32;;;;;;;6.25;4.70;;;6.50;1.00;;;;;;7364224;19;20010;-61
2022/04/04 10:20:02;;;;;;;5.97;4.60;;;6.80;1.00;;;;;;7364701;19;20016;-61
2022/04/04 10:22:32;;;;;;;6.68;4.32;;;6.70;1.00;;;;;;7360289;19;20014;-61
2022/04/04 10:25:03;;;;;;;6.88;4.70;;;6.90;1.00;;;;;;7364731;19;20037;-61
2022/04/04 10:27:33;;;;;;;7.32;4.90;;;6.30;1.00;;;;;;7363745;19;20014;-62
2022/04/04 10:30:07;;;;;;;7.90;5.00;;;6.70;1.00;;;;;;7365087;19;20021;-61
2022/04/04 10:32:37;;;;;;;6.07;5.15;;;6.80;1.00;;;;;;7377163;19;20031;-61
2022/04/04 10:35:14;;;;;;;5.90;4.32;;;7.00;1.00;;;;;;7362345;19;20017;-61
2022/04/04 10:37:46;;;;;;;6.70;4.93;;;7.50;1.00;;;;;;7362340;19;20106;-61
2022/04/04 10:40:23;;;;;;;7.20;4.72;;;6.90;1.00;;;;;;7362842;19;20557;-61
2022/04/04 10:43:12;;;;;;;10.85;6.60;;;6.90;1.00;;;;;;7358007;19;20044;-62
2022/04/04 10:46:02;;;;;;;9.57;6.43;;;6.00;1.00;;;;;;7360433;19;20086;-61
2022/04/04 10:48:35;;;;;;;9.55;6.18;;;5.90;1.00;;;;;;7362036;19;20023;-62
2022/04/04 10:51:12;;;;;;;7.72;5.15;;;6.40;1.00;;;;;;7362464;19;20355;-61
2022/04/04 10:53:44;;;;;;;5.55;4.35;;;6.30;1.00;;;;;;7378050;19;20017;-61
2022/04/04 10:56:19;;;;;;;6.40;4.72;;;6.10;1.00;;;;;;7363466;19;20022;-60
2022/04/04 10:58:50;;;;;;;7.50;4.95;;;6.40;1.00;;;;;;7361206;19;20014;-60
2022/04/04 11:01:24;;;;;;;9.23;5.50;;;6.50;1.00;;;;;;7361639;19;20021;-60
2022/04/04 11:04:03;;;;;;;6.60;4.40;;;7.00;1.00;;;;;;7358714;19;20014;-61
2022/04/04 11:09:32;;;;;;;5.88;4.63;;;7.10;1.00;;;;;;7363271;19;20018;-62
2022/04/04 11:12:14;;;;;;;6.32;4.53;;;7.10;1.00;;;;;;7356337;19;20018;-61
2022/04/04 11:14:54;;;;;;;6.28;4.82;;;7.30;1.00;;;;;;7382383;19;20014;-62
2022/04/04 11:17:38;;;;;;;6.13;4.60;;;7.20;1.00;;;;;;7361913;19;20034;-61
2022/04/04 11:20:21;;;;;;;6.47;4.60;;;7.10;1.00;;;;;;7361929;19;20016;-61
2022/04/04 11:22:55;;;;;;;5.05;4.20;;;7.30;1.00;;;;;;7357534;19;20471;-62
2022/04/04 11:25:33;;;;;;;5.07;4.25;;;7.30;1.00;;;;;;7363605;19;20018;-61
2022/04/04 11:28:04;;;;;;;8.88;4.90;;;6.80;1.00;;;;;;7362107;19;20567;-61
2022/04/04 11:30:34;;;;;;;10.00;4.78;;;7.50;1.00;;;;;;7362909;19;20007;-61
2022/04/04 11:33:17;;;;;;;7.72;4.85;;;7.90;1.00;;;;;;7357148;19;20132;-61
2022/04/04 11:35:48;;;;;;;8.02;5.50;;;7.80;1.00;;;;;;7383151;19;20014;-61
2022/04/04 11:38:19;;;;;;;6.95;4.40;;;7.40;1.00;;;;;;7360987;19;20025;-62
2022/04/04 11:40:53;;;;;;;7.50;5.57;;;7.10;1.00;;;;;;7362171;19;20013;-61
2022/04/04 11:43:26;;;;;;;10.88;4.97;;;7.30;1.00;;;;;;7356797;19;20011;-63
2022/04/04 11:45:56;;;;;;;6.15;4.13;;;7.50;1.00;;;;;;7359182;19;20014;-61
2022/04/04 11:48:28;;;;;;;6.07;4.03;;;7.70;1.00;;;;;;7358484;19;20086;-60
2022/04/04 11:50:59;;;;;;;5.90;4.65;;;7.70;1.00;;;;;;7361701;19;20140;-62
2022/04/04 11:53:37;;;;;;;7.40;4.38;;;7.70;1.00;;;;;;7377148;19;20018;-61
2022/04/04 11:56:12;;;;;;;8.93;4.28;;;7.90;1.00;;;;;;7359806;19;20022;-63
2022/04/04 11:58:51;;;;;;;6.50;5.38;;;7.60;1.00;;;;;;7357203;19;20065;-61
2022/04/04 12:01:21;;;;;;;4.85;4.32;;;7.50;1.00;;;;;;7361657;19;20017;-61
2022/04/04 12:03:53;;;;;;;6.00;4.22;;;8.10;1.00;;;;;;7353107;19;20006;-62
2022/04/04 12:06:24;;;;;;;5.55;4.57;;;8.20;1.00;;;;;;7360963;19;20011;-62
2022/04/04 12:08:55;;;;;;;5.05;4.00;;;7.80;1.00;;;;;;7381054;19;20015;-62
2022/04/04 12:11:29;;;;;;;5.32;4.20;;;8.20;1.00;;;;;;7361183;19;20034;-63
2022/04/04 12:14:01;;;;;;;6.47;3.72;;;8.40;1.00;;;;;;7358165;19;20027;-61
2022/04/04 12:16:32;;;;;;;8.35;4.10;;;8.10;1.00;;;;;;7362520;19;20017;-60
2022/04/04 12:19:06;;;;;;;5.70;4.53;;;8.30;1.00;;;;;;7360331;19;20605;-61
2022/04/04 12:21:36;;;;;;;5.30;4.07;;;8.10;1.00;;;;;;7357446;19;20010;-61
2022/04/04 12:26:49;;;;;;;5.63;4.00;;;7.60;1.00;;;;;;7378299;19;20026;-62
2022/04/04 12:29:19;;;;;;;6.35;4.45;;;8.30;1.00;;;;;;7361197;19;20006;-61
2022/04/04 12:31:57;;;;;;;5.55;4.60;;;8.00;1.00;;;;;;7356184;19;20082;-62
2022/04/04 12:34:29;;;;;;;6.93;4.57;;;8.00;1.00;;;;;;7358279;19;20050;-61
2022/04/04 12:37:02;;;;;;;5.35;4.07;;;8.40;1.00;;;;;;7360090;19;20014;-61
2022/04/04 12:39:32;;;;;;;7.75;4.53;;;8.40;1.00;;;;;;7361409;19;20162;-64
2022/04/04 12:42:09;;;;;;;5.25;4.03;;;8.00;1.00;;;;;;7357198;19;21233;-63
2022/04/04 12:44:39;;;;;;;5.10;4.25;;;8.40;1.00;;;;;;7380059;19;20100;-61
2022/04/04 12:47:10;;;;;;;7.90;4.65;;;8.30;1.00;;;;;;7358102;19;20010;-62
2022/04/04 12:49:44;;;;;;;6.93;4.70;;;8.50;1.00;;;;;;7360473;19;20024;-61
2022/04/04 12:52:31;;;;;;;5.95;4.50;;;8.70;1.00;;;;;;7355007;19;20015;-61
2022/04/04 12:55:15;;;;;;;10.82;6.97;;;8.30;1.00;;;;;;7360327;19;20498;-61
2022/04/04 12:57:45;;;;;;;6.63;5.32;;;8.40;1.00;;;;;;7358624;19;20454;-60
2022/04/04 13:00:27;;;;;;;7.88;4.95;;;8.60;1.00;;;;;;7360118;19;20021;-61
2022/04/04 13:02:58;;;;;;;5.35;4.65;;;8.90;1.00;;;;;;7364102;19;20561;-62
2022/04/04 13:05:30;;;;;;;5.82;5.03;;;8.80;1.00;;;;;;7380565;19;20029;-60
2022/04/04 13:08:00;;;;;;;6.80;5.03;;;8.20;1.00;;;;;;7358710;19;20014;-61
2022/04/04 13:10:30;;;;;;;6.20;4.60;;;8.50;1.00;;;;;;7360855;19;20035;-61
2022/04/04 13:13:15;;;;;;;6.78;5.10;;;8.60;1.00;;;;;;7356678;19;20015;-61
2022/04/04 13:15:47;;;;;;;7.55;4.82;;;8.70;1.00;;;;;;7362118;19;20014;-61
2022/04/04 13:18:37;;;;;;;5.85;5.07;;;8.70;1.00;;;;;;7365745;19;20013;-61
2022/04/04 13:21:09;;;;;;;5.63;4.82;;;8.70;1.00;;;;;;7365247;19;20458;-62